Broadland, South Dakota
Current Conditions -  °F | °C
As of 3:55 PM on Friday 24 Oct 2014 (Local Time) from KHON Reporting Station
Clear Clear  
Wind Chill: 81°   Ceiling: Unl
Heat Index: 81°   Visibility: 10mi
Dew Point: 33°   Wind: 13mph
Humidity: 18%   Direction: 310°NW
Pressure: 29.88"   Gusts: NA
Location:  44.3587°N, 98.2248°W
Report Text: KHON 242055Z AUTO 31011KT 10SM CLR 27/01 A2988 RMK AO2 SLP114 T02720006 55008
Loading
Personal Weather Stations






























Interactive Weather Map
Tropical Storm Tracking
New forecast layout! Learn more

10-Day Weather Forecast

Advertisements
Track Severe Weather on mobile